Time;durP1;ratioP1;P1;durP2;ratioP2;P2;SDS_P1;SDS_P2;PMS_P1;PMS_P2;Temp;Humidity;BMP_temperature;BMP_pressure;BME280_temperature;BME280_humidity;BME280_pressure;Samples;Min_cycle;Max_cycle;Signal;HPM_P1;HPM_P2
2024/01/30 00:01:04;;;;;;;0.30;0.20;;;;;;;3.64;44.44;97096.38;5065999;28;20793;-55
2024/01/30 00:03:34;;;;;;;0.30;0.20;;;;;;;3.23;44.91;97105.72;5091556;28;20433;-54
2024/01/30 00:06:04;;;;;;;0.30;0.20;;;;;;;3.52;44.21;97110.13;5092354;28;20440;-56
2024/01/30 00:08:33;;;;;;;0.37;0.27;;;;;;;3.09;46.91;97116.97;5091995;28;20428;-56
2024/01/30 00:11:02;;;;;;;0.30;0.20;;;;;;;3.53;44.31;97120.44;5091915;28;20450;-55
2024/01/30 00:13:31;;;;;;;0.30;0.20;;;;;;;3.42;44.04;97120.88;5091926;28;20436;-55
2024/01/30 00:15:59;;;;;;;0.30;0.20;;;;;;;3.36;44.23;97129.50;5091794;28;20523;-56
2024/01/30 00:18:28;;;;;;;0.40;0.37;;;;;;;3.48;44.31;97122.81;5091417;28;20917;-56
2024/01/30 00:20:58;;;;;;;0.30;0.20;;;;;;;3.77;43.24;97120.16;5092004;28;20444;-55
2024/01/30 00:23:27;;;;;;;0.40;0.30;;;;;;;3.05;45.15;97121.78;5091846;28;20436;-55
2024/01/30 00:25:55;;;;;;;0.57;0.40;;;;;;;3.45;44.76;97128.41;5092582;28;20467;-55
2024/01/30 00:28:25;;;;;;;0.30;0.20;;;;;;;3.19;44.88;97125.38;5091955;28;20428;-56
2024/01/30 00:30:54;;;;;;;1.97;0.20;;;;;;;3.17;45.10;97130.00;5091988;28;20444;-56
2024/01/30 00:33:22;;;;;;;0.30;0.20;;;;;;;3.10;45.13;97119.44;5092090;28;20463;-56
2024/01/30 00:35:51;;;;;;;0.30;0.20;;;;;;;3.01;45.63;97122.31;5092271;28;20471;-56
2024/01/30 00:38:21;;;;;;;0.40;0.40;;;;;;;2.98;46.06;97122.66;5092377;28;20444;-56
2024/01/30 00:40:50;;;;;;;0.30;0.20;;;;;;;2.74;46.50;97120.22;5091799;28;20472;-55
2024/01/30 00:43:18;;;;;;;0.60;0.30;;;;;;;2.43;46.70;97118.50;5091936;28;20855;-56
2024/01/30 00:45:47;;;;;;;0.40;0.30;;;;;;;2.44;47.20;97114.09;5091322;28;20448;-55
2024/01/30 00:48:16;;;;;;;1.77;0.93;;;;;;;2.39;46.80;97114.63;5092267;28;20440;-56
2024/01/30 00:50:44;;;;;;;2.10;0.73;;;;;;;2.27;47.06;97110.78;5091703;28;20996;-55
2024/01/30 00:53:13;;;;;;;0.40;0.30;;;;;;;2.14;47.81;97118.38;5091813;28;20440;-56
2024/01/30 00:55:44;;;;;;;6.33;0.57;;;;;;;1.96;48.52;97109.97;5091114;28;20500;-56
2024/01/30 00:58:13;;;;;;;0.40;0.37;;;;;;;2.12;48.46;97054.97;5092539;28;20465;-56
2024/01/30 01:00:42;;;;;;;0.70;0.30;;;;;;;2.66;47.44;97108.03;5091593;28;20979;-56
2024/01/30 01:03:10;;;;;;;0.40;0.20;;;;;;;2.81;46.75;97102.84;5091960;28;20448;-56
2024/01/30 01:05:39;;;;;;;0.43;0.40;;;;;;;2.90;49.08;97099.16;5090954;28;20442;-56
2024/01/30 01:08:08;;;;;;;0.30;0.30;;;;;;;2.66;46.88;97102.00;5092061;28;20433;-56
2024/01/30 01:10:37;;;;;;;0.57;0.57;;;;;;;2.21;47.67;97084.47;5091373;28;20791;-56
2024/01/30 01:13:07;;;;;;;0.40;0.20;;;;;;;2.32;48.00;97102.41;5091786;28;20428;-56
2024/01/30 01:15:37;;;;;;;0.67;0.40;;;;;;;2.09;48.11;97068.38;5091510;28;20527;-56
2024/01/30 01:18:06;;;;;;;0.70;0.70;;;;;;;2.60;47.81;97093.03;5091408;28;20468;-56
2024/01/30 01:20:34;;;;;;;0.40;0.27;;;;;;;2.83;54.50;97087.78;5091374;28;20571;-56
2024/01/30 01:23:03;;;;;;;0.67;0.30;;;;;;;2.81;47.04;97081.91;5091283;28;20528;-56
2024/01/30 01:25:31;;;;;;;0.50;0.30;;;;;;;2.09;47.58;97086.69;5091050;28;20463;-56
2024/01/30 01:28:01;;;;;;;2.60;0.70;;;;;;;2.22;48.24;97083.50;5090256;28;20444;-55
2024/01/30 01:30:31;;;;;;;0.30;0.30;;;;;;;2.44;47.76;97080.06;5090634;28;20440;-56
2024/01/30 01:33:02;;;;;;;0.40;0.30;;;;;;;2.51;47.61;97084.44;5090928;28;20444;-55
2024/01/30 01:35:31;;;;;;;0.30;0.20;;;;;;;2.36;48.03;97083.56;5091530;28;20444;-56
2024/01/30 01:38:00;;;;;;;0.30;0.20;;;;;;;2.58;47.38;97087.16;5091122;28;20456;-56
2024/01/30 01:40:28;;;;;;;0.50;0.40;;;;;;;2.63;46.62;97078.78;5091515;28;20468;-57
2024/01/30 01:42:57;;;;;;;0.43;0.30;;;;;;;1.87;47.82;97022.13;5091019;28;20493;-56
2024/01/30 01:45:26;;;;;;;0.40;0.30;;;;;;;2.18;48.53;97074.38;5091160;28;20527;-57
2024/01/30 01:47:56;;;;;;;0.40;0.40;;;;;;;2.00;48.20;97074.63;5091021;28;20436;-56
2024/01/30 01:50:26;;;;;;;0.30;0.17;;;;;;;2.08;48.07;97055.47;5090652;28;20442;-56
2024/01/30 01:52:56;;;;;;;0.50;0.30;;;;;;;2.32;48.11;97071.00;5091380;28;20440;-56
2024/01/30 01:55:27;;;;;;;0.60;0.33;;;;;;;1.87;48.17;97006.44;5090732;28;21072;-56
2024/01/30 01:57:57;;;;;;;3.27;2.00;;;;;;;2.14;48.09;97073.91;5095153;28;20459;-56
2024/01/30 02:00:26;;;;;;;0.30;0.20;;;;;;;2.23;48.74;97080.72;5094591;28;21027;-56
2024/01/30 02:02:56;;;;;;;0.47;0.47;;;;;;;2.18;47.99;97072.56;5095146;28;20432;-56
2024/01/30 02:05:26;;;;;;;0.50;0.40;;;;;;;2.12;48.66;97088.97;5094622;28;20519;-56
2024/01/30 02:07:55;;;;;;;0.40;0.30;;;;;;;2.09;48.25;97075.41;5095232;28;20444;-55
2024/01/30 02:10:24;;;;;;;0.80;0.57;;;;;;;1.74;48.38;97008.81;5094881;28;20438;-55
2024/01/30 02:12:53;;;;;;;0.30;0.20;;;;;;;2.05;48.49;97084.59;5094829;28;20444;-56
2024/01/30 02:15:22;;;;;;;0.30;0.20;;;;;;;2.18;48.20;97083.03;5094531;28;20493;-56
2024/01/30 02:17:50;;;;;;;0.70;0.20;;;;;;;2.26;48.31;97064.66;5095061;28;20884;-56
2024/01/30 02:20:21;;;;;;;0.30;0.20;;;;;;;2.46;47.68;97092.00;5094415;28;20475;-56
2024/01/30 02:22:52;;;;;;;0.37;0.30;;;;;;;2.22;48.11;97086.94;5094650;28;20448;-56
2024/01/30 02:25:22;;;;;;;0.50;0.30;;;;;;;2.60;47.44;97073.91;5094009;28;21109;-56
2024/01/30 02:27:51;;;;;;;0.40;0.30;;;;;;;2.57;47.37;97025.34;5094434;28;20436;-56
2024/01/30 02:30:19;;;;;;;1.80;0.57;;;;;;;2.25;47.52;97070.88;5094543;28;20531;-56
2024/01/30 02:32:48;;;;;;;0.40;0.30;;;;;;;2.01;48.24;97021.38;5093155;28;20436;-56
2024/01/30 02:35:17;;;;;;;0.80;0.60;;;;;;;2.39;47.99;97058.84;5094323;28;20519;-57
2024/01/30 02:37:45;;;;;;;0.47;0.47;;;;;;;2.37;47.62;97079.97;5094250;28;20531;-56
2024/01/30 02:40:15;;;;;;;0.30;0.20;;;;;;;2.27;50.07;97066.31;5094316;28;20507;-56
2024/01/30 02:42:44;;;;;;;2.27;0.40;;;;;;;2.56;47.70;97074.25;5094024;28;20443;-56
2024/01/30 02:45:14;;;;;;;0.40;0.30;;;;;;;2.27;48.96;97078.56;5094810;28;20455;-56
2024/01/30 02:47:42;;;;;;;0.30;0.20;;;;;;;2.09;48.19;97075.41;5093863;28;20433;-56
2024/01/30 02:50:11;;;;;;;0.40;0.30;;;;;;;2.14;53.64;97073.91;5094146;28;20531;-56
2024/01/30 02:52:40;;;;;;;0.20;0.20;;;;;;;2.36;48.36;97075.72;5094605;28;20444;-56
2024/01/30 02:55:09;;;;;;;0.40;0.30;;;;;;;2.52;47.95;97066.94;5093957;28;20510;-56
2024/01/30 02:57:39;;;;;;;0.30;0.20;;;;;;;2.79;47.43;97071.59;5094464;28;20541;-56
2024/01/30 03:00:10;;;;;;;0.30;0.20;;;;;;;2.86;46.86;97071.72;5081335;28;20809;-56
2024/01/30 03:02:39;;;;;;;0.30;0.20;;;;;;;2.43;48.41;97050.47;5093993;28;20438;-56
2024/01/30 03:05:09;;;;;;;0.30;0.20;;;;;;;2.65;47.27;97076.81;5093427;28;20515;-55
2024/01/30 03:07:38;;;;;;;0.30;0.20;;;;;;;2.76;47.36;97079.00;5093135;28;20450;-56
2024/01/30 03:10:07;;;;;;;0.30;0.20;;;;;;;2.68;46.75;97074.66;5094002;28;20445;-56
2024/01/30 03:12:36;;;;;;;0.30;0.20;;;;;;;2.71;47.56;97074.28;5093680;28;20929;-57
2024/01/30 03:15:07;;;;;;;0.33;0.20;;;;;;;2.42;47.56;97021.88;5093742;28;20444;-56
2024/01/30 03:17:36;;;;;;;0.30;0.20;;;;;;;2.49;47.61;97059.41;5094049;28;20436;-56
2024/01/30 03:20:07;;;;;;;0.93;0.93;;;;;;;2.56;47.91;97073.41;5093775;28;20524;-55
2024/01/30 03:22:35;;;;;;;0.30;0.27;;;;;;;2.39;47.68;97085.84;5093621;28;20523;-55
2024/01/30 03:25:04;;;;;;;0.43;0.40;;;;;;;2.05;47.95;97017.41;5093492;28;20486;-55
2024/01/30 03:27:33;;;;;;;0.50;0.50;;;;;;;2.33;48.25;97073.44;5093702;28;20516;-56
2024/01/30 03:30:02;;;;;;;0.30;0.20;;;;;;;2.36;47.86;97067.03;5092637;28;20535;-56
2024/01/30 03:32:32;;;;;;;0.40;0.20;;;;;;;2.52;47.77;97062.50;5093421;28;20472;-56
2024/01/30 03:35:01;;;;;;;0.73;0.73;;;;;;;2.76;48.63;97073.78;5093215;28;20444;-55
2024/01/30 03:37:30;;;;;;;0.30;0.20;;;;;;;2.52;47.12;97041.56;5092776;28;20439;-55
2024/01/30 03:39:58;;;;;;;0.30;0.20;;;;;;;2.52;47.48;97059.06;5090932;28;20517;-55
2024/01/30 03:42:27;;;;;;;0.50;0.50;;;;;;;2.47;47.97;97075.31;5086977;28;20491;-55
2024/01/30 03:44:56;;;;;;;0.30;0.20;;;;;;;1.89;47.90;97028.00;5092777;28;20846;-55
2024/01/30 03:47:25;;;;;;;0.40;0.30;;;;;;;1.93;48.62;97087.59;5092867;28;20515;-56
2024/01/30 03:49:55;;;;;;;0.50;0.43;;;;;;;1.62;49.44;97083.38;5093220;28;20452;-55
2024/01/30 03:52:24;;;;;;;0.73;0.50;;;;;;;1.44;49.85;97091.44;5093168;28;20438;-55
2024/01/30 03:54:53;;;;;;;0.97;0.50;;;;;;;1.45;49.55;97085.22;5093051;28;20507;-55
2024/01/30 03:57:21;;;;;;;0.50;0.20;;;;;;;1.56;49.36;97084.03;5092843;28;20429;-55
2024/01/30 03:59:50;;;;;;;0.30;0.30;;;;;;;1.64;50.06;97073.56;5093138;28;20432;-56
2024/01/30 04:02:19;;;;;;;0.50;0.47;;;;;;;1.53;49.22;97089.59;5092138;28;20919;-55
2024/01/30 04:04:48;;;;;;;8.63;0.63;;;;;;;1.49;49.17;97046.50;5092927;28;20444;-55
2024/01/30 04:07:18;;;;;;;0.30;0.30;;;;;;;2.00;48.53;97092.16;5092276;28;20438;-54
2024/01/30 04:09:51;;;;;;;0.40;0.20;;;;;;;1.79;48.69;97085.72;5092449;28;20440;-56
2024/01/30 04:12:19;;;;;;;0.30;0.20;;;;;;;1.67;49.32;97029.56;5092166;28;20515;-55
2024/01/30 04:14:48;;;;;;;0.30;0.20;;;;;;;1.97;48.74;97040.19;5092342;28;20459;-55
2024/01/30 04:17:17;;;;;;;0.47;0.43;;;;;;;1.67;49.33;97058.31;5066584;28;20547;-55
2024/01/30 04:19:45;;;;;;;0.30;0.20;;;;;;;1.43;49.43;97088.97;5091814;28;20440;-56
2024/01/30 04:22:14;;;;;;;1.73;0.30;;;;;;;1.74;49.71;97088.03;5092687;28;20487;-56
2024/01/30 04:24:44;;;;;;;0.60;0.30;;;;;;;1.61;49.22;97085.16;5092274;28;20497;-56
2024/01/30 04:27:12;;;;;;;0.50;0.30;;;;;;;1.73;49.39;97086.41;5092144;28;20531;-56
2024/01/30 04:29:41;;;;;;;0.30;0.20;;;;;;;1.43;48.85;97008.00;5092017;28;20436;-56
2024/01/30 04:32:10;;;;;;;1.07;0.97;;;;;;;2.17;48.60;97083.22;5092211;28;20960;-56
2024/01/30 04:34:39;;;;;;;2.63;0.77;;;;;;;1.42;48.62;97009.78;5091855;28;20927;-56
2024/01/30 04:37:08;;;;;;;0.40;0.40;;;;;;;2.10;48.59;97090.13;5092410;28;20444;-56
2024/01/30 04:39:37;;;;;;;0.40;0.30;;;;;;;2.28;48.40;97093.25;5090981;28;20437;-56
2024/01/30 04:42:07;;;;;;;0.40;0.30;;;;;;;2.42;48.08;97088.09;5092058;28;20468;-56
2024/01/30 04:44:37;;;;;;;0.30;0.20;;;;;;;2.62;47.24;97095.47;5091433;28;20432;-56
2024/01/30 04:47:08;;;;;;;0.33;0.30;;;;;;;2.42;48.24;97066.34;5091977;28;20437;-56
2024/01/30 04:49:37;;;;;;;0.77;0.30;;;;;;;2.47;51.63;97096.25;5091564;28;20436;-56
2024/01/30 04:52:06;;;;;;;0.40;0.40;;;;;;;2.32;48.09;97091.94;5091904;28;20448;-56
2024/01/30 04:54:35;;;;;;;0.30;0.30;;;;;;;2.56;49.12;97097.81;5091678;28;20988;-57
2024/01/30 04:57:05;;;;;;;2.30;0.40;;;;;;;2.52;47.93;97095.72;5090610;28;20999;-56
2024/01/30 04:59:35;;;;;;;0.40;0.30;;;;;;;2.15;48.38;97099.06;5091943;28;20440;-56
2024/01/30 05:02:04;;;;;;;0.60;0.60;;;;;;;2.15;47.96;97095.66;5091582;28;20475;-56
2024/01/30 05:04:33;;;;;;;0.80;0.40;;;;;;;2.18;48.33;97097.91;5091810;28;20968;-56
2024/01/30 05:07:02;;;;;;;0.50;0.40;;;;;;;0.51;49.11;96905.06;5091131;28;20467;-56
2024/01/30 05:09:30;;;;;;;0.60;0.60;;;;;;;1.88;48.93;97091.72;5091534;28;20479;-56
2024/01/30 05:11:59;;;;;;;0.50;0.50;;;;;;;1.77;48.99;97103.38;5079557;28;20436;-56
2024/01/30 05:14:28;;;;;;;2.03;1.20;;;;;;;1.64;49.48;97103.13;5091900;28;20445;-56
2024/01/30 05:16:58;;;;;;;0.60;0.57;;;;;;;1.48;49.62;97103.19;5091382;28;20480;-56
2024/01/30 05:19:26;;;;;;;0.40;0.30;;;;;;;1.75;49.42;97100.09;5091258;28;20444;-56
2024/01/30 05:21:55;;;;;;;0.53;0.30;;;;;;;2.10;48.81;97109.22;5065104;28;20504;-56
2024/01/30 05:24:24;;;;;;;1.37;1.27;;;;;;;1.73;48.61;97109.09;5091278;28;20446;-57
2024/01/30 05:26:55;;;;;;;0.80;0.43;;;;;;;1.26;49.93;97115.13;5091396;28;20454;-57
2024/01/30 05:29:23;;;;;;;3.60;0.73;;;;;;;1.66;49.22;97113.41;5091152;28;20527;-56
2024/01/30 05:31:52;;;;;;;0.40;0.40;;;;;;;1.71;49.10;97114.53;5093714;28;20807;-57
2024/01/30 05:34:22;;;;;;;0.30;0.30;;;;;;;1.88;49.02;97125.69;5095535;28;20479;-56
2024/01/30 05:36:51;;;;;;;0.87;0.87;;;;;;;2.02;49.80;97127.59;5095165;28;20517;-56
2024/01/30 05:39:19;;;;;;;0.50;0.50;;;;;;;1.70;50.75;97118.09;5094519;28;20464;-56
2024/01/30 05:41:48;;;;;;;0.70;0.47;;;;;;;1.85;53.11;97112.97;5095315;28;20975;-56
2024/01/30 05:44:17;;;;;;;0.70;0.70;;;;;;;1.65;51.51;97119.59;5095032;28;20439;-57
2024/01/30 05:46:45;;;;;;;0.50;0.50;;;;;;;2.00;52.10;97121.72;5095172;28;20800;-57
2024/01/30 05:49:14;;;;;;;1.43;0.30;;;;;;;1.70;48.90;97125.94;5094257;28;20436;-57
2024/01/30 05:51:44;;;;;;;0.97;0.97;;;;;;;1.53;49.17;97132.22;5095239;28;20964;-56
2024/01/30 05:54:13;;;;;;;0.30;0.30;;;;;;;1.61;49.17;97134.00;5094457;28;20504;-56
2024/01/30 05:56:46;;;;;;;0.57;0.47;;;;;;;1.45;49.12;97137.47;5094646;28;20447;-55
2024/01/30 05:59:14;;;;;;;0.47;0.40;;;;;;;1.59;49.79;97109.84;5069772;28;20445;-56
2024/01/30 06:01:47;;;;;;;0.40;0.40;;;;;;;1.81;53.26;97143.06;5095120;28;20472;-58
2024/01/30 06:04:16;;;;;;;1.07;0.50;;;;;;;1.66;50.65;97095.09;5094373;28;20987;-58
2024/01/30 06:06:46;;;;;;;0.80;0.70;;;;;;;1.34;49.85;97147.47;5094870;28;20509;-57
2024/01/30 06:09:15;;;;;;;1.90;1.13;;;;;;;1.44;49.80;97141.09;5095088;28;20522;-58
2024/01/30 06:11:44;;;;;;;1.73;1.50;;;;;;;1.32;49.88;97144.22;5094711;28;20501;-57
2024/01/30 06:14:13;;;;;;;0.70;0.60;;;;;;;1.03;50.46;97124.69;5094940;28;20545;-58
2024/01/30 06:16:42;;;;;;;0.30;0.27;;;;;;;1.55;50.27;97145.09;5093935;28;20436;-57
2024/01/30 06:19:10;;;;;;;2.30;0.93;;;;;;;1.71;49.58;97142.44;5094269;28;20436;-56
2024/01/30 06:21:39;;;;;;;11.23;1.07;;;;;;;1.39;50.03;97145.19;5094278;28;20781;-57
2024/01/30 06:24:09;;;;;;;0.50;0.50;;;;;;;1.65;51.32;97146.56;5094399;28;21003;-58
2024/01/30 06:26:38;;;;;;;0.60;0.30;;;;;;;1.78;49.50;97149.44;5094180;28;20523;-58
2024/01/30 06:29:07;;;;;;;1.03;1.03;;;;;;;1.52;49.61;97142.84;5094493;28;20451;-58
2024/01/30 06:31:41;;;;;;;1.13;0.60;;;;;;;2.11;48.23;97125.75;5094367;28;20424;-59
2024/01/30 06:34:11;;;;;;;1.00;0.80;;;;;;;2.12;49.06;97154.38;5094777;28;20861;-60
2024/01/30 06:36:39;;;;;;;0.53;0.30;;;;;;;2.50;48.23;97145.59;5087960;28;20444;-59
2024/01/30 06:39:09;;;;;;;0.50;0.50;;;;;;;3.05;46.52;97144.53;5087642;28;20527;-58
2024/01/30 06:41:38;;;;;;;5.13;0.90;;;;;;;3.57;45.55;97141.84;5094259;28;20475;-59
2024/01/30 06:44:08;;;;;;;2.83;1.17;;;;;;;4.01;44.57;97141.84;5092183;28;20565;-60
2024/01/30 06:46:37;;;;;;;0.73;0.73;;;;;;;3.61;44.61;97112.50;5094031;28;20452;-58
2024/01/30 06:49:05;;;;;;;2.70;0.80;;;;;;;4.46;44.95;97138.91;5093560;28;20835;-58
2024/01/30 06:51:34;;;;;;;0.97;0.97;;;;;;;5.40;47.07;97137.69;5094269;28;20436;-57
2024/01/30 06:54:02;;;;;;;0.93;0.93;;;;;;;5.01;42.54;97148.72;5093514;28;20491;-57
2024/01/30 06:56:32;;;;;;;0.70;0.70;;;;;;;5.32;41.84;97145.72;5093001;28;20447;-59
2024/01/30 06:59:01;;;;;;;3.43;0.60;;;;;;;4.82;42.27;97137.06;5093092;28;20447;-59
2024/01/30 07:01:30;;;;;;;1.30;1.30;;;;;;;5.68;41.47;97136.69;5093085;28;20459;-59
2024/01/30 07:03:59;;;;;;;0.50;0.20;;;;;;;5.35;40.67;97093.59;5092945;28;21035;-59
2024/01/30 07:06:28;;;;;;;0.30;0.20;;;;;;;6.54;40.59;97131.75;5093455;28;20531;-58
2024/01/30 07:08:56;;;;;;;2.40;0.70;;;;;;;7.42;39.03;97129.59;5093166;28;20440;-58
2024/01/30 07:11:25;;;;;;;3.33;0.40;;;;;;;7.46;37.72;97119.44;5093560;28;20447;-57
2024/01/30 07:13:55;;;;;;;0.50;0.50;;;;;;;7.32;41.43;97131.81;5092976;28;20952;-57
2024/01/30 07:16:24;;;;;;;0.63;0.50;;;;;;;7.33;38.46;97135.28;5092532;28;20441;-56
2024/01/30 07:18:53;;;;;;;0.40;0.40;;;;;;;7.78;38.23;97131.75;5093067;28;20440;-56
2024/01/30 07:21:27;;;;;;;1.47;1.37;;;;;;;8.27;37.69;97133.84;5091872;28;20521;-55
2024/01/30 07:23:56;;;;;;;0.40;0.30;;;;;;;8.47;38.59;97084.34;5081674;28;20471;-57
2024/01/30 07:26:24;;;;;;;0.40;0.30;;;;;;;8.67;41.31;97137.91;5093079;28;20440;-57
2024/01/30 07:28:53;;;;;;;1.10;0.30;;;;;;;9.32;43.59;97136.59;5092858;28;20432;-58
2024/01/30 07:31:23;;;;;;;0.30;0.20;;;;;;;8.27;39.66;97136.50;5079380;28;20440;-59
2024/01/30 07:33:53;;;;;;;0.30;0.20;;;;;;;8.29;44.85;97143.19;5092059;28;21016;-59
2024/01/30 07:36:21;;;;;;;0.77;0.77;;;;;;;9.45;39.67;97136.50;5092974;28;20437;-59
2024/01/30 07:38:50;;;;;;;0.30;0.20;;;;;;;9.16;36.91;97145.06;5092714;28;20435;-59
2024/01/30 07:41:20;;;;;;;0.87;0.67;;;;;;;9.70;35.50;97147.06;5092458;28;20940;-58
2024/01/30 07:43:48;;;;;;;0.60;0.60;;;;;;;9.72;34.64;97142.34;5091723;28;20475;-58
2024/01/30 07:46:17;;;;;;;0.43;0.43;;;;;;;9.56;34.36;97148.22;5090441;28;20849;-57
2024/01/30 07:48:47;;;;;;;0.30;0.20;;;;;;;9.32;34.47;97138.44;5086483;28;21045;-57
2024/01/30 07:51:18;;;;;;;0.63;0.50;;;;;;;9.75;35.32;97126.03;5067544;28;20515;-57
2024/01/30 07:53:46;;;;;;;0.33;0.23;;;;;;;9.72;35.77;97131.75;5091123;28;20972;-56
2024/01/30 07:56:15;;;;;;;0.40;0.30;;;;;;;10.53;34.13;97126.94;5080761;28;20490;-57
2024/01/30 07:58:44;;;;;;;1.33;0.60;;;;;;;10.49;33.93;97140.88;5092749;28;20436;-57
2024/01/30 08:01:13;;;;;;;0.40;0.40;;;;;;;11.33;35.89;97136.16;5092601;28;20436;-57
2024/01/30 08:03:41;;;;;;;0.40;0.30;;;;;;;10.87;35.61;97112.19;5092406;28;20537;-59
2024/01/30 08:06:12;;;;;;;0.40;0.30;;;;;;;10.99;36.06;97056.50;5093043;28;20536;-61
2024/01/30 08:08:41;;;;;;;0.40;0.30;;;;;;;11.71;36.88;97125.13;5092529;28;20459;-61
2024/01/30 08:11:09;;;;;;;0.30;0.20;;;;;;;11.25;36.21;97141.81;5093000;28;20832;-61
2024/01/30 08:13:38;;;;;;;0.40;0.30;;;;;;;11.45;39.29;97123.72;5091472;28;20444;-62
2024/01/30 08:16:07;;;;;;;0.50;0.30;;;;;;;11.25;34.31;97120.56;5092706;28;20904;-63
2024/01/30 08:18:40;;;;;;;0.30;0.20;;;;;;;10.87;33.66;97088.31;5092459;28;20830;-61
2024/01/30 08:21:09;;;;;;;0.30;0.20;;;;;;;12.02;32.35;97123.91;5092188;28;20436;-61
2024/01/30 08:23:39;;;;;;;0.40;0.40;;;;;;;11.40;33.94;97126.25;5091488;28;20482;-60
2024/01/30 08:26:08;;;;;;;0.40;0.33;;;;;;;12.43;33.59;97129.03;5091996;28;20448;-60
2024/01/30 08:28:37;;;;;;;0.33;0.23;;;;;;;11.80;32.66;97118.41;5092086;28;20443;-61
2024/01/30 08:31:05;;;;;;;0.30;0.20;;;;;;;10.72;32.64;97112.63;5092331;28;20444;-60
2024/01/30 08:33:34;;;;;;;0.97;0.50;;;;;;;10.55;33.03;97086.97;5091640;28;20517;-59
2024/01/30 08:36:03;;;;;;;0.30;0.20;;;;;;;12.80;34.76;97126.78;5091176;28;20440;-59
2024/01/30 08:38:32;;;;;;;0.30;0.20;;;;;;;11.25;32.99;97106.50;5091584;28;20436;-60
2024/01/30 08:41:02;;;;;;;0.50;0.40;;;;;;;11.30;31.52;97080.06;5091703;28;20540;-59
2024/01/30 08:43:31;;;;;;;0.40;0.30;;;;;;;12.27;31.30;97116.47;5091844;28;21090;-60
2024/01/30 08:46:00;;;;;;;0.40;0.30;;;;;;;12.92;33.06;97119.56;5080223;28;20445;-60
2024/01/30 08:48:29;;;;;;;0.70;0.40;;;;;;;13.07;30.42;97121.72;5086857;28;20436;-62
2024/01/30 08:50:58;;;;;;;0.50;0.40;;;;;;;12.86;31.96;97117.84;5091933;28;20458;-62
2024/01/30 08:53:26;;;;;;;0.30;0.20;;;;;;;12.87;31.94;97114.16;5091934;28;20436;-61
2024/01/30 08:55:58;;;;;;;0.50;0.50;;;;;;;12.97;30.88;97116.19;5092219;28;20827;-61
2024/01/30 08:58:29;;;;;;;0.40;0.30;;;;;;;12.93;32.20;97115.06;5091491;28;20443;-61
2024/01/30 09:00:57;;;;;;;0.50;0.30;;;;;;;12.93;30.12;97067.16;5091204;28;20440;-60
2024/01/30 09:03:27;;;;;;;1.03;1.03;;;;;;;12.60;33.50;97099.81;5091705;28;20453;-60
2024/01/30 09:05:56;;;;;;;0.50;0.40;;;;;;;13.19;30.14;97077.16;5091297;28;20436;-60
2024/01/30 09:08:25;;;;;;;0.30;0.20;;;;;;;13.27;35.81;97090.09;5091531;28;20498;-58
2024/01/30 09:10:54;;;;;;;0.47;0.30;;;;;;;12.83;30.33;97093.56;5091712;28;20439;-59
2024/01/30 09:13:23;;;;;;;0.40;0.20;;;;;;;12.47;31.30;97049.59;5091483;28;20437;-59
2024/01/30 09:15:55;;;;;;;0.40;0.30;;;;;;;12.21;31.24;97095.34;5091589;28;20432;-59
2024/01/30 09:18:25;;;;;;;0.40;0.30;;;;;;;12.44;30.78;97077.47;5090678;28;20443;-61
2024/01/30 09:20:53;;;;;;;0.33;0.27;;;;;;;12.89;29.56;97088.09;5091691;28;20498;-61
2024/01/30 09:23:22;;;;;;;0.40;0.30;;;;;;;12.51;32.53;97093.25;5091150;28;20428;-61
2024/01/30 09:25:51;;;;;;;0.50;0.20;;;;;;;12.92;37.06;97073.50;5091808;28;20929;-60
2024/01/30 09:28:19;;;;;;;1.53;0.50;;;;;;;13.81;31.25;97067.94;5090707;28;20960;-60
2024/01/30 09:30:50;;;;;;;0.40;0.33;;;;;;;13.50;29.59;97076.59;5082716;28;20436;-60
2024/01/30 09:33:21;;;;;;;0.50;0.40;;;;;;;13.92;29.83;97074.22;5089609;28;20445;-61
2024/01/30 09:35:50;;;;;;;0.33;0.30;;;;;;;13.27;33.75;97082.91;5091136;28;20440;-59
2024/01/30 09:38:19;;;;;;;1.30;0.40;;;;;;;12.81;29.59;97077.03;5090478;28;20474;-59
2024/01/30 09:40:55;;;;;;;0.30;0.30;;;;;;;13.07;30.80;97082.59;5090691;28;20979;-60
2024/01/30 09:43:24;;;;;;;1.83;0.40;;;;;;;12.10;30.41;97067.75;5090124;28;20440;-58
2024/01/30 09:45:56;;;;;;;0.40;0.30;;;;;;;12.06;29.96;97059.44;5090816;28;20483;-59
2024/01/30 09:48:27;;;;;;;0.40;0.30;;;;;;;13.35;29.32;97060.38;5090695;28;20487;-59
2024/01/30 09:50:58;;;;;;;0.50;0.50;;;;;;;13.44;29.06;97058.09;5090882;28;20444;-59
2024/01/30 09:53:28;;;;;;;1.80;0.30;;;;;;;14.37;30.61;97034.78;5090053;28;20514;-59
2024/01/30 09:55:58;;;;;;;0.53;0.50;;;;;;;13.35;29.48;97047.06;5090586;28;20902;-58
2024/01/30 09:58:26;;;;;;;2.50;0.50;;;;;;;13.60;29.15;97038.63;5090801;28;20497;-59
2024/01/30 10:00:55;;;;;;;0.40;0.30;;;;;;;13.05;29.08;97035.94;5090745;28;20448;-58
2024/01/30 10:03:28;;;;;;;0.50;0.40;;;;;;;12.33;29.21;96997.72;5091098;28;20523;-58
2024/01/30 10:05:57;;;;;;;0.50;0.30;;;;;;;11.98;37.04;97021.78;5065294;28;20475;-58
2024/01/30 10:08:29;;;;;;;0.53;0.30;;;;;;;13.01;30.16;97030.28;5091311;28;20463;-58
2024/01/30 10:10:58;;;;;;;0.60;0.30;;;;;;;13.75;29.67;97012.97;5091030;28;20444;-58
2024/01/30 10:13:27;;;;;;;0.40;0.30;;;;;;;14.16;30.43;97018.78;5091183;28;20443;-58
2024/01/30 10:15:58;;;;;;;0.40;0.30;;;;;;;13.82;30.29;97012.78;5090542;28;20790;-59
2024/01/30 10:18:28;;;;;;;0.37;0.27;;;;;;;13.95;30.74;97007.91;5093874;28;20832;-58
2024/01/30 10:20:57;;;;;;;1.70;0.37;;;;;;;12.91;29.57;97011.47;5094702;28;20459;-59
2024/01/30 10:23:26;;;;;;;0.40;0.30;;;;;;;13.71;32.76;97013.72;5094372;28;20447;-58
2024/01/30 10:26:02;;;;;;;0.43;0.37;;;;;;;12.66;29.36;96942.72;5093998;28;21180;-58
2024/01/30 10:28:31;;;;;;;0.40;0.30;;;;;;;13.59;29.52;96987.19;5094386;28;20927;-57
2024/01/30 10:31:00;;;;;;;0.40;0.20;;;;;;;13.62;30.36;96984.03;5093479;28;20440;-58
2024/01/30 10:33:35;;;;;;;0.50;0.30;;;;;;;12.92;30.37;96986.50;5094666;28;20513;-58
2024/01/30 10:36:05;;;;;;;1.07;1.07;;;;;;;12.28;30.07;96985.16;5094144;28;20525;-57
2024/01/30 10:38:34;;;;;;;0.50;0.30;;;;;;;13.31;31.28;96956.19;5094283;28;20432;-57
2024/01/30 10:41:03;;;;;;;0.30;0.30;;;;;;;12.38;29.76;96985.31;5093105;28;20470;-58
2024/01/30 10:43:34;;;;;;;0.43;0.40;;;;;;;13.29;29.62;96936.19;5094646;28;20497;-54
2024/01/30 10:46:14;;;;;;;0.83;0.50;;;;;;;13.57;28.44;96964.50;5094099;28;20859;-54
2024/01/30 10:48:45;;;;;;;0.40;0.30;;;;;;;13.05;28.77;96885.00;5093627;28;20436;-54
2024/01/30 10:51:15;;;;;;;0.40;0.30;;;;;;;13.25;29.22;96951.06;5094285;28;20440;-55
2024/01/30 10:53:48;;;;;;;0.50;0.50;;;;;;;13.10;28.93;96950.84;5093574;28;20444;-54
2024/01/30 10:56:18;;;;;;;0.40;0.40;;;;;;;14.15;28.44;96939.84;5094172;28;20436;-55
2024/01/30 10:58:46;;;;;;;0.40;0.30;;;;;;;14.36;28.40;96947.81;5093166;28;20867;-54
2024/01/30 11:01:16;;;;;;;0.33;0.27;;;;;;;13.19;28.38;96917.41;5093964;28;20440;-55
2024/01/30 11:03:47;;;;;;;0.40;0.30;;;;;;;14.17;28.62;96930.53;5093633;28;20439;-55
2024/01/30 11:06:18;;;;;;;0.50;0.40;;;;;;;14.29;28.15;96923.19;5093712;28;20476;-56
2024/01/30 11:08:47;;;;;;;0.30;0.20;;;;;;;14.74;27.68;96917.44;5093969;28;20927;-55
2024/01/30 11:11:18;;;;;;;0.47;0.30;;;;;;;13.07;28.97;96927.38;5093841;28;20440;-56
2024/01/30 11:13:51;;;;;;;1.43;1.33;;;;;;;14.33;28.14;96912.84;5093831;28;20483;-55
2024/01/30 11:16:24;;;;;;;0.50;0.50;;;;;;;13.27;28.83;96837.91;5093570;28;20447;-55
2024/01/30 11:18:54;;;;;;;0.40;0.40;;;;;;;14.35;27.99;96911.53;5065993;28;20515;-56
2024/01/30 11:21:26;;;;;;;0.40;0.30;;;;;;;14.01;28.15;96905.56;5092594;28;20524;-55
2024/01/30 11:23:56;;;;;;;0.40;0.30;;;;;;;15.02;27.70;96901.09;5093379;28;20439;-55
2024/01/30 11:26:29;;;;;;;0.40;0.30;;;;;;;15.11;27.78;96886.16;5092933;28;20479;-56
2024/01/30 11:28:58;;;;;;;0.40;0.30;;;;;;;14.83;27.49;96891.06;5091992;28;20448;-57
2024/01/30 11:31:27;;;;;;;0.40;0.30;;;;;;;16.09;27.19;96879.03;5093095;28;20456;-58
2024/01/30 11:33:58;;;;;;;0.40;0.30;;;;;;;15.64;26.74;96870.91;5093676;28;20780;-57
2024/01/30 11:36:28;;;;;;;0.50;0.30;;;;;;;14.91;27.63;96843.34;5092904;28;20440;-56
2024/01/30 11:38:57;;;;;;;0.40;0.30;;;;;;;15.68;27.99;96850.63;5093832;28;20482;-57
2024/01/30 11:41:26;;;;;;;0.40;0.30;;;;;;;14.29;27.26;96872.53;5093160;28;20445;-56
2024/01/30 11:43:54;;;;;;;0.40;0.30;;;;;;;14.75;28.19;96865.66;5092282;28;20449;-55
2024/01/30 11:46:26;;;;;;;0.40;0.30;;;;;;;14.91;27.27;96872.69;5092828;28;20479;-56
2024/01/30 11:48:55;;;;;;;0.40;0.40;;;;;;;15.42;27.44;96879.09;5092945;28;20444;-54